Port Moody, Canada
Current Conditions -  °F | °C
As of 1:00 PM on Thursday 23 Oct 2014 (Local Time) from CYVR Reporting Station
Light Rain Light Rain  
Wind Chill: 54°   Ceiling: 6500
Heat Index: 54°   Visibility: 15mi
Dew Point: 50°   Wind: 13mph
Humidity: 88%   Direction: 150°SSE
Pressure: 29.74"   Gusts: NA
Location:  49.28°N, 122.83°W
Report Text: CYVR 232000Z 15011KT 15SM -RA FEW007 FEW015 SCT040 BKN065 OVC080 12/10 A2974 RMK CF1CU1SC2SC3AC1 PCPN VRY LGT SLP071
Loading
Personal Weather Stations






























Interactive Weather Map
Tropical Storm Tracking
New forecast layout! Learn more

10-Day Weather Forecast

Advertisements
Track Severe Weather on mobile